Time;durP1;ratioP1;P1;durP2;ratioP2;P2;SDS_P1;SDS_P2;PMS_P1;PMS_P2;Temp;Humidity;BMP_temperature;BMP_pressure;BME280_temperature;BME280_humidity;BME280_pressure;Samples;Min_cycle;Max_cycle;Signal;HPM_P1;HPM_P2
2023/04/23 00:01:40;;;;;;;1.75;1.13;;;25.20;46.80;;;;;;5042319;28;20048;-70
2023/04/23 00:04:08;;;;;;;2.08;1.00;;;25.20;46.70;;;;;;5042888;28;20033;-69
2023/04/23 00:06:34;;;;;;;1.55;1.05;;;25.20;46.70;;;;;;5042168;28;20029;-70
2023/04/23 00:09:00;;;;;;;2.25;0.90;;;25.20;46.70;;;;;;5042149;28;20033;-69
2023/04/23 00:11:27;;;;;;;1.70;1.00;;;25.20;46.60;;;;;;5040044;28;20025;-70
2023/04/23 00:13:53;;;;;;;1.20;0.93;;;25.20;46.70;;;;;;5042921;28;20484;-69
2023/04/23 00:16:19;;;;;;;1.70;0.98;;;25.30;46.80;;;;;;5041154;28;20025;-70
2023/04/23 00:18:46;;;;;;;1.60;1.10;;;25.20;46.70;;;;;;5040060;28;20504;-70
2023/04/23 00:21:12;;;;;;;1.17;1.00;;;25.30;46.80;;;;;;5038745;28;20111;-70
2023/04/23 00:23:38;;;;;;;2.20;1.00;;;25.30;46.70;;;;;;5039098;28;20021;-70
2023/04/23 00:26:04;;;;;;;1.48;0.98;;;25.30;46.70;;;;;;5036263;28;20043;-70
2023/04/23 00:28:29;;;;;;;1.90;1.10;;;25.30;46.80;;;;;;5036871;28;20397;-69
2023/04/23 00:30:55;;;;;;;1.38;0.90;;;25.30;46.70;;;;;;5041446;28;20029;-70
2023/04/23 00:33:21;;;;;;;1.35;1.10;;;25.30;46.70;;;;;;5038038;28;20029;-71
2023/04/23 00:35:46;;;;;;;1.95;1.15;;;25.30;46.70;;;;;;5039166;28;20113;-69
2023/04/23 00:38:12;;;;;;;1.80;1.00;;;25.30;46.70;;;;;;5043157;28;20457;-71
2023/04/23 00:40:38;;;;;;;1.40;0.80;;;25.40;46.70;;;;;;5039677;28;20025;-69
2023/04/23 00:43:04;;;;;;;1.20;0.85;;;25.40;46.70;;;;;;5039142;28;20116;-70
2023/04/23 00:45:29;;;;;;;1.48;0.80;;;25.40;46.70;;;;;;5037244;28;20029;-70
2023/04/23 00:47:55;;;;;;;1.20;0.80;;;25.40;46.60;;;;;;5037176;28;20338;-70
2023/04/23 00:50:21;;;;;;;1.55;0.90;;;25.40;46.60;;;;;;5035857;28;20033;-70
2023/04/23 00:52:46;;;;;;;1.40;1.00;;;25.40;46.60;;;;;;5037988;28;20033;-69
2023/04/23 00:55:12;;;;;;;1.58;1.00;;;25.40;46.60;;;;;;5039543;28;20416;-70
2023/04/23 00:57:38;;;;;;;1.45;0.98;;;25.40;46.50;;;;;;5036893;28;20025;-69
2023/04/23 01:00:06;;;;;;;1.90;1.08;;;25.40;47.00;;;;;;5034906;28;20103;-70
2023/04/23 01:02:32;;;;;;;1.25;0.90;;;25.40;46.50;;;;;;5039626;28;20025;-71
2023/04/23 01:05:00;;;;;;;1.55;1.10;;;25.30;46.40;;;;;;5037205;28;20319;-69
2023/04/23 01:07:26;;;;;;;1.48;1.00;;;25.40;46.40;;;;;;5035949;28;20082;-70
2023/04/23 01:09:52;;;;;;;2.58;1.00;;;25.40;46.40;;;;;;5040330;28;20075;-69
2023/04/23 01:12:18;;;;;;;2.20;1.20;;;25.30;46.40;;;;;;5037785;28;20421;-70
2023/04/23 01:14:44;;;;;;;1.42;0.90;;;25.30;46.40;;;;;;5034696;28;20029;-69
2023/04/23 01:17:13;;;;;;;1.83;1.10;;;25.30;46.40;;;;;;5037561;28;20047;-70
2023/04/23 01:19:39;;;;;;;1.35;1.15;;;25.30;46.30;;;;;;5039163;28;20021;-70
2023/04/23 01:22:23;;;;;;;1.70;1.00;;;25.30;46.40;;;;;;5038064;28;20094;-69
2023/04/23 01:24:50;;;;;;;2.13;1.20;;;25.30;46.30;;;;;;5038110;28;20033;-70
2023/04/23 01:27:18;;;;;;;2.08;1.10;;;25.30;46.30;;;;;;5038627;28;20397;-70
2023/04/23 01:29:46;;;;;;;1.73;1.10;;;25.30;46.30;;;;;;5034579;28;20072;-70
2023/04/23 01:32:14;;;;;;;1.48;1.02;;;25.30;46.30;;;;;;5039098;28;20111;-69
2023/04/23 01:34:41;;;;;;;1.30;0.90;;;25.20;46.30;;;;;;5036486;28;20022;-70
2023/04/23 01:37:07;;;;;;;1.85;1.20;;;25.20;46.30;;;;;;5037842;28;20044;-70
2023/04/23 01:39:33;;;;;;;1.88;1.17;;;25.20;46.30;;;;;;5036748;28;20093;-70
2023/04/23 01:42:00;;;;;;;1.45;0.90;;;25.20;46.30;;;;;;5038926;28;20033;-70
2023/04/23 01:44:25;;;;;;;1.70;1.00;;;25.20;46.30;;;;;;5038464;28;20111;-70
2023/04/23 01:46:51;;;;;;;1.40;1.00;;;25.20;46.30;;;;;;5041610;28;20112;-71
2023/04/23 01:49:17;;;;;;;1.15;1.00;;;25.20;46.30;;;;;;5041759;28;20561;-69
2023/04/23 01:51:42;;;;;;;1.48;0.90;;;25.20;46.30;;;;;;5042481;28;20043;-69
2023/04/23 01:54:08;;;;;;;1.58;1.10;;;25.10;46.30;;;;;;5042605;28;20056;-70
2023/04/23 01:56:34;;;;;;;1.35;0.95;;;25.10;46.30;;;;;;5040848;28;20389;-70
2023/04/23 01:59:00;;;;;;;1.23;1.00;;;25.10;46.30;;;;;;5043060;28;20474;-70
2023/04/23 02:01:41;;;;;;;1.00;0.88;;;25.10;46.30;;;;;;5039652;28;20037;-69
2023/04/23 02:04:06;;;;;;;1.42;1.00;;;25.10;46.30;;;;;;5056010;28;20033;-70
2023/04/23 02:06:32;;;;;;;1.60;1.00;;;25.10;46.30;;;;;;5042185;28;20020;-70
2023/04/23 02:08:58;;;;;;;1.40;0.98;;;25.10;46.30;;;;;;5042029;28;20033;-70
2023/04/23 02:11:23;;;;;;;1.40;0.90;;;25.10;46.40;;;;;;5041917;28;20025;-69
2023/04/23 02:13:49;;;;;;;1.77;1.10;;;25.00;46.30;;;;;;5041722;28;20087;-70
2023/04/23 02:16:15;;;;;;;1.45;1.10;;;25.00;46.30;;;;;;5040150;28;20489;-70
2023/04/23 02:18:41;;;;;;;1.38;0.90;;;25.00;46.30;;;;;;5040525;28;20034;-71
2023/04/23 02:21:07;;;;;;;1.58;1.10;;;25.00;46.40;;;;;;5041710;28;20021;-70
2023/04/23 02:23:32;;;;;;;1.40;0.95;;;25.00;46.40;;;;;;5041851;28;20496;-70
2023/04/23 02:25:58;;;;;;;1.35;0.90;;;25.00;46.40;;;;;;5041586;28;20029;-70
2023/04/23 02:28:24;;;;;;;1.48;1.10;;;24.90;46.40;;;;;;5039683;28;20030;-70
2023/04/23 02:30:49;;;;;;;1.40;1.00;;;24.90;46.40;;;;;;5040586;28;20033;-69
2023/04/23 02:33:15;;;;;;;1.25;0.95;;;24.90;46.40;;;;;;5040047;28;20837;-70
2023/04/23 02:35:41;;;;;;;1.13;0.90;;;24.90;46.40;;;;;;5039609;28;20041;-69
2023/04/23 02:38:07;;;;;;;1.23;0.80;;;24.90;46.40;;;;;;5039838;28;20032;-70
2023/04/23 02:40:32;;;;;;;1.45;1.00;;;24.90;46.90;;;;;;5042102;28;20025;-70
2023/04/23 02:42:58;;;;;;;1.70;1.00;;;24.90;46.40;;;;;;5041241;28;20047;-70
2023/04/23 02:45:23;;;;;;;1.20;0.90;;;24.90;46.40;;;;;;5039143;28;20102;-70
2023/04/23 02:47:49;;;;;;;1.45;1.13;;;24.80;46.40;;;;;;5040610;28;20346;-71
2023/04/23 02:50:15;;;;;;;1.48;1.00;;;24.80;46.40;;;;;;5043549;28;20098;-71
2023/04/23 02:52:41;;;;;;;1.50;0.90;;;24.80;46.40;;;;;;5046942;28;20033;-69
2023/04/23 02:55:07;;;;;;;1.02;0.85;;;24.80;46.40;;;;;;5042613;28;20029;-71
2023/04/23 02:57:33;;;;;;;1.40;0.90;;;24.80;46.50;;;;;;5040803;28;20028;-70
2023/04/23 02:59:59;;;;;;;1.13;0.90;;;24.80;46.50;;;;;;5035258;28;20025;-70
2023/04/23 03:02:24;;;;;;;1.77;1.00;;;24.80;46.50;;;;;;5040544;28;20479;-70
2023/04/23 03:04:50;;;;;;;1.35;1.00;;;24.80;46.50;;;;;;5040185;28;20098;-70
2023/04/23 03:07:16;;;;;;;1.95;1.10;;;24.70;46.50;;;;;;5038297;28;20485;-70
2023/04/23 03:09:42;;;;;;;1.10;0.90;;;24.70;46.50;;;;;;5040695;28;20029;-70
2023/04/23 03:12:08;;;;;;;1.35;0.90;;;24.70;46.50;;;;;;5039341;28;20107;-70
2023/04/23 03:14:34;;;;;;;1.60;0.95;;;24.70;46.50;;;;;;5037233;28;20112;-69
2023/04/23 03:16:59;;;;;;;1.42;1.00;;;24.70;46.50;;;;;;5037697;28;20052;-69
2023/04/23 03:19:25;;;;;;;2.05;1.08;;;24.70;46.60;;;;;;5037272;28;20363;-69
2023/04/23 03:21:51;;;;;;;0.70;0.70;;;24.70;46.60;;;;;;5038386;28;20029;-69
2023/04/23 03:24:16;;;;;;;1.10;0.90;;;24.70;46.60;;;;;;5040652;28;20116;-68
2023/04/23 03:26:42;;;;;;;1.33;0.90;;;24.60;46.60;;;;;;5041345;28;20040;-68
2023/04/23 03:29:09;;;;;;;1.48;0.88;;;24.60;46.60;;;;;;5040553;28;20039;-68
2023/04/23 03:31:35;;;;;;;1.40;1.02;;;24.60;46.60;;;;;;5039740;28;20057;-67
2023/04/23 03:34:00;;;;;;;1.10;0.90;;;24.60;46.60;;;;;;5039483;28;20072;-67
2023/04/23 03:36:26;;;;;;;1.60;1.05;;;24.60;46.60;;;;;;5037653;28;20036;-68
2023/04/23 03:38:52;;;;;;;1.17;0.77;;;24.60;46.60;;;;;;5039368;28;20025;-68
2023/04/23 03:41:18;;;;;;;1.13;0.80;;;24.50;46.60;;;;;;5037138;28;20551;-61
2023/04/23 03:43:44;;;;;;;1.15;0.80;;;24.50;46.60;;;;;;5039888;28;20037;-67
2023/04/23 03:46:09;;;;;;;1.40;1.00;;;24.50;46.60;;;;;;5034994;28;20014;-67
2023/04/23 03:48:35;;;;;;;0.90;0.80;;;24.50;46.70;;;;;;5037009;28;20326;-66
2023/04/23 03:51:01;;;;;;;1.65;1.00;;;24.50;46.70;;;;;;5042489;28;20485;-67
2023/04/23 03:53:27;;;;;;;0.95;0.80;;;24.50;46.70;;;;;;5039899;28;20053;-66
2023/04/23 03:55:52;;;;;;;1.75;0.77;;;24.50;46.70;;;;;;5038583;28;20464;-67
2023/04/23 03:58:18;;;;;;;0.73;0.70;;;24.50;46.80;;;;;;5042684;28;20029;-66
2023/04/23 04:00:44;;;;;;;1.10;0.80;;;24.40;46.70;;;;;;5039528;28;20025;-67
2023/04/23 04:03:10;;;;;;;1.40;0.98;;;24.40;46.80;;;;;;5041401;28;20071;-66
2023/04/23 04:05:35;;;;;;;1.00;0.80;;;24.40;46.80;;;;;;5039210;28;20453;-68
2023/04/23 04:08:01;;;;;;;1.10;0.85;;;24.40;46.80;;;;;;5039814;28;20170;-68
2023/04/23 04:10:27;;;;;;;1.00;0.90;;;24.40;46.80;;;;;;5037187;28;20048;-67
2023/04/23 04:12:54;;;;;;;1.20;0.80;;;24.40;46.80;;;;;;5040538;28;20057;-68
2023/04/23 04:15:20;;;;;;;1.17;0.82;;;24.40;46.80;;;;;;5039933;28;20432;-67
2023/04/23 04:17:46;;;;;;;1.38;0.80;;;24.40;46.80;;;;;;5040756;28;20075;-67
2023/04/23 04:20:11;;;;;;;0.90;0.80;;;24.40;46.90;;;;;;5039297;28;20415;-67
2023/04/23 04:22:37;;;;;;;2.20;1.02;;;24.40;46.90;;;;;;5039902;28;20151;-67
2023/04/23 04:25:04;;;;;;;2.17;0.90;;;24.40;46.90;;;;;;5040973;28;20063;-67
2023/04/23 04:27:32;;;;;;;1.30;0.90;;;24.30;46.80;;;;;;5040726;28;20041;-66
2023/04/23 04:30:06;;;;;;;1.02;0.80;;;24.30;46.90;;;;;;5055677;28;20437;-67
2023/04/23 04:32:32;;;;;;;0.90;0.80;;;24.30;46.80;;;;;;5055581;28;20508;-66
2023/04/23 04:34:57;;;;;;;0.80;0.70;;;24.30;46.90;;;;;;5056720;28;20036;-66
2023/04/23 04:37:23;;;;;;;1.23;0.85;;;24.30;46.90;;;;;;5057077;28;20100;-68
2023/04/23 04:39:49;;;;;;;1.42;0.90;;;24.30;46.90;;;;;;5062889;28;20053;-67
2023/04/23 04:42:15;;;;;;;1.00;0.88;;;24.30;46.90;;;;;;5056817;28;20040;-67
2023/04/23 04:44:42;;;;;;;1.13;0.80;;;24.30;46.90;;;;;;5056009;28;20464;-67
2023/04/23 04:47:08;;;;;;;0.70;0.70;;;24.30;46.90;;;;;;5053566;28;20036;-67
2023/04/23 04:49:33;;;;;;;0.90;0.70;;;24.30;46.90;;;;;;5055323;28;20029;-66
2023/04/23 04:51:59;;;;;;;1.52;0.80;;;24.20;46.90;;;;;;5054122;28;20422;-66
2023/04/23 04:54:25;;;;;;;1.00;0.90;;;24.20;46.90;;;;;;5052338;28;20029;-66
2023/04/23 04:56:50;;;;;;;1.40;0.80;;;24.20;46.90;;;;;;5056161;28;20368;-67
2023/04/23 04:59:16;;;;;;;1.02;0.70;;;24.20;47.00;;;;;;5055112;28;20044;-65
2023/04/23 05:01:42;;;;;;;0.98;0.73;;;24.20;47.00;;;;;;5054906;28;20043;-67
2023/04/23 05:04:08;;;;;;;0.88;0.82;;;24.20;47.00;;;;;;5053046;28;20457;-66
2023/04/23 05:06:33;;;;;;;1.00;0.70;;;24.20;47.00;;;;;;5056797;28;20047;-67
2023/04/23 05:08:59;;;;;;;1.20;0.82;;;24.20;47.00;;;;;;5054981;28;20025;-67
2023/04/23 05:11:25;;;;;;;1.17;0.90;;;24.20;47.00;;;;;;5051569;28;20481;-66
2023/04/23 05:13:50;;;;;;;1.02;0.73;;;24.10;46.90;;;;;;5055996;28;20111;-67
2023/04/23 05:16:16;;;;;;;0.82;0.70;;;24.10;47.00;;;;;;5053183;28;20061;-67
2023/04/23 05:18:41;;;;;;;0.77;0.70;;;24.10;47.00;;;;;;5052308;28;20033;-66
2023/04/23 05:21:08;;;;;;;0.73;0.73;;;24.10;46.90;;;;;;5055444;28;20041;-67
2023/04/23 05:23:35;;;;;;;0.85;0.80;;;24.10;47.00;;;;;;5052597;28;20044;-67
2023/04/23 05:26:02;;;;;;;1.10;0.80;;;24.10;47.50;;;;;;5053937;28;20025;-67
2023/04/23 05:28:29;;;;;;;1.20;0.80;;;24.10;47.00;;;;;;5053613;28;20425;-65
2023/04/23 05:30:55;;;;;;;1.17;0.90;;;24.10;47.00;;;;;;5053898;28;20025;-65
2023/04/23 05:33:20;;;;;;;1.00;0.80;;;24.10;47.00;;;;;;5053649;28;20362;-67
2023/04/23 05:35:46;;;;;;;1.00;0.80;;;24.10;47.00;;;;;;5055677;28;20020;-67
2023/04/23 05:38:11;;;;;;;0.85;0.70;;;24.10;47.00;;;;;;5054957;28;20025;-66
2023/04/23 05:40:38;;;;;;;0.90;0.80;;;24.10;47.00;;;;;;5044387;28;20033;-66
2023/04/23 05:43:03;;;;;;;1.13;0.80;;;24.00;47.00;;;;;;5038728;28;20057;-67
2023/04/23 05:45:29;;;;;;;0.90;0.70;;;24.10;47.10;;;;;;5041476;28;20134;-66
2023/04/23 05:47:54;;;;;;;0.90;0.80;;;24.00;47.00;;;;;;5039275;28;20108;-66
2023/04/23 05:50:20;;;;;;;0.60;0.60;;;24.00;47.10;;;;;;5041503;28;20498;-66
2023/04/23 05:52:46;;;;;;;1.10;0.90;;;24.00;47.10;;;;;;5041121;28;20025;-66
2023/04/23 05:55:14;;;;;;;1.20;0.82;;;24.00;47.10;;;;;;5040312;28;20032;-67
2023/04/23 05:57:40;;;;;;;0.75;0.70;;;24.00;47.10;;;;;;5042140;28;20522;-68
2023/04/23 06:00:10;;;;;;;0.80;0.70;;;24.00;47.10;;;;;;5039980;28;20076;-68
2023/04/23 06:02:36;;;;;;;0.73;0.70;;;24.00;47.10;;;;;;5039525;28;20033;-67
2023/04/23 06:05:02;;;;;;;0.95;0.80;;;24.00;47.10;;;;;;5040420;28;20017;-68
2023/04/23 06:07:28;;;;;;;1.02;0.80;;;24.00;47.10;;;;;;5041561;28;20032;-68
2023/04/23 06:09:54;;;;;;;0.95;0.80;;;24.00;47.10;;;;;;5039986;28;20037;-67
2023/04/23 06:12:19;;;;;;;0.70;0.70;;;23.90;47.10;;;;;;5040317;28;20030;-68
2023/04/23 06:14:45;;;;;;;1.35;0.88;;;24.00;47.10;;;;;;5040028;28;20124;-68
2023/04/23 06:17:10;;;;;;;1.13;0.70;;;23.90;47.10;;;;;;5039463;28;20035;-68
2023/04/23 06:19:36;;;;;;;0.80;0.70;;;24.00;47.20;;;;;;5040221;28;20087;-68
2023/04/23 06:22:01;;;;;;;0.63;0.60;;;23.90;47.10;;;;;;5040483;28;20053;-68
2023/04/23 06:24:27;;;;;;;1.08;0.70;;;23.90;47.20;;;;;;5039925;28;20041;-68
2023/04/23 06:26:53;;;;;;;1.00;0.80;;;23.90;47.60;;;;;;5040088;28;20037;-68
2023/04/23 06:29:18;;;;;;;1.25;0.98;;;23.90;47.20;;;;;;5038405;28;20147;-68
2023/04/23 06:31:44;;;;;;;1.00;0.82;;;23.90;47.20;;;;;;5038557;28;20025;-68
2023/04/23 06:34:10;;;;;;;1.30;0.80;;;23.90;47.20;;;;;;5036857;28;20022;-68
2023/04/23 06:36:35;;;;;;;1.00;0.80;;;23.90;47.20;;;;;;5036414;28;20088;-68
2023/04/23 06:39:01;;;;;;;1.13;0.80;;;23.90;47.20;;;;;;5036829;28;20484;-68
2023/04/23 06:41:26;;;;;;;0.98;0.70;;;23.90;47.20;;;;;;5040258;28;20330;-68
2023/04/23 06:43:53;;;;;;;1.55;0.90;;;23.90;47.20;;;;;;5039570;28;20337;-68
2023/04/23 06:46:18;;;;;;;1.00;0.80;;;23.90;47.20;;;;;;5039590;28;20091;-68
2023/04/23 06:48:44;;;;;;;1.20;0.80;;;23.90;47.20;;;;;;5036843;28;20033;-68
2023/04/23 06:51:09;;;;;;;0.88;0.80;;;23.90;47.20;;;;;;5040052;28;20040;-68
2023/04/23 06:53:35;;;;;;;0.70;0.70;;;23.80;47.20;;;;;;5039989;28;20362;-67
2023/04/23 06:56:01;;;;;;;1.17;0.90;;;23.80;47.20;;;;;;5040501;28;20074;-67
2023/04/23 06:58:30;;;;;;;0.70;0.70;;;23.80;47.20;;;;;;5039283;28;20045;-67
2023/04/23 07:01:00;;;;;;;0.85;0.80;;;23.80;47.20;;;;;;5040038;28;20026;-67
2023/04/23 07:03:30;;;;;;;0.88;0.75;;;23.80;47.20;;;;;;5070033;28;20102;-67
2023/04/23 07:05:55;;;;;;;1.15;0.80;;;23.80;47.20;;;;;;5038022;28;20445;-67
2023/04/23 07:08:21;;;;;;;1.77;0.80;;;23.80;47.20;;;;;;5037775;28;20105;-67
2023/04/23 07:10:47;;;;;;;1.13;0.90;;;23.80;47.20;;;;;;5039994;28;20021;-67
2023/04/23 07:13:13;;;;;;;0.82;0.70;;;23.80;47.20;;;;;;5042365;28;20118;-66
2023/04/23 07:15:40;;;;;;;0.88;0.60;;;23.80;47.20;;;;;;5039666;28;20162;-67
2023/04/23 07:18:06;;;;;;;0.80;0.70;;;23.70;47.20;;;;;;5041253;28;20036;-68
2023/04/23 07:20:31;;;;;;;0.70;0.70;;;23.70;47.20;;;;;;5036173;28;20024;-68
2023/04/23 07:22:58;;;;;;;0.77;0.70;;;23.70;47.20;;;;;;5038852;28;20538;-68
2023/04/23 07:25:25;;;;;;;1.10;0.73;;;23.70;47.20;;;;;;5039796;28;20081;-68
2023/04/23 07:27:52;;;;;;;1.15;0.80;;;23.70;47.30;;;;;;5039421;28;20044;-68
2023/04/23 07:30:19;;;;;;;1.13;0.82;;;23.70;47.30;;;;;;5039890;28;20037;-68
2023/04/23 07:32:45;;;;;;;0.90;0.77;;;23.70;47.30;;;;;;5038144;28;20032;-68
2023/04/23 07:35:11;;;;;;;1.23;0.90;;;23.70;47.30;;;;;;5040020;28;20482;-69
2023/04/23 07:37:37;;;;;;;1.00;0.80;;;23.70;47.30;;;;;;5039268;28;20187;-68
2023/04/23 07:40:04;;;;;;;0.77;0.75;;;23.70;47.30;;;;;;5037490;28;20037;-68
2023/04/23 07:42:30;;;;;;;0.80;0.80;;;23.70;47.30;;;;;;5035225;28;20025;-69
2023/04/23 07:44:56;;;;;;;0.90;0.70;;;23.70;47.30;;;;;;5038299;28;20028;-68
2023/04/23 07:47:22;;;;;;;1.27;0.90;;;23.70;47.40;;;;;;5038073;28;20033;-68
2023/04/23 07:49:47;;;;;;;1.23;0.80;;;23.70;47.40;;;;;;5036599;28;20033;-69
2023/04/23 07:52:14;;;;;;;0.82;0.80;;;23.70;47.90;;;;;;5045463;28;20030;-68
2023/04/23 07:54:40;;;;;;;0.98;0.80;;;23.70;47.40;;;;;;5039589;28;20409;-68
2023/04/23 07:57:05;;;;;;;0.90;0.77;;;23.70;47.40;;;;;;5037996;28;20029;-68
2023/04/23 07:59:31;;;;;;;1.42;0.95;;;23.70;47.40;;;;;;5038914;28;20029;-68
2023/04/23 08:01:56;;;;;;;1.08;0.80;;;23.70;47.40;;;;;;5040203;28;20025;-68
2023/04/23 08:04:22;;;;;;;1.23;0.77;;;23.70;47.40;;;;;;5037926;28;20025;-68
2023/04/23 08:06:48;;;;;;;1.27;0.90;;;23.70;47.40;;;;;;5037796;28;20516;-68
2023/04/23 08:09:13;;;;;;;1.48;0.82;;;23.60;47.40;;;;;;5038640;28;20022;-68
2023/04/23 08:11:40;;;;;;;1.10;0.90;;;23.60;47.40;;;;;;5036384;28;20026;-68
2023/04/23 08:14:05;;;;;;;0.90;0.80;;;23.60;47.40;;;;;;5038803;28;20028;-69
2023/04/23 08:16:31;;;;;;;1.30;0.80;;;23.60;47.50;;;;;;5053191;28;20036;-69
2023/04/23 08:18:57;;;;;;;1.20;0.82;;;23.60;47.50;;;;;;5035876;28;20030;-68
2023/04/23 08:21:24;;;;;;;0.98;0.80;;;23.60;47.40;;;;;;5039254;28;20025;-68
2023/04/23 08:23:50;;;;;;;1.08;0.77;;;23.60;47.50;;;;;;5039618;28;20021;-69
2023/04/23 08:26:15;;;;;;;1.48;0.90;;;23.60;47.50;;;;;;5039754;28;20033;-68
2023/04/23 08:28:41;;;;;;;1.00;0.90;;;23.60;47.50;;;;;;5039144;28;20117;-68
2023/04/23 08:31:07;;;;;;;1.20;0.90;;;23.60;47.50;;;;;;5037404;28;20064;-69
2023/04/23 08:33:32;;;;;;;1.33;0.90;;;23.60;47.50;;;;;;5033845;28;20025;-68
2023/04/23 08:35:58;;;;;;;0.75;0.73;;;23.60;47.50;;;;;;5036972;28;20136;-68
2023/04/23 08:38:24;;;;;;;1.17;0.82;;;23.60;47.50;;;;;;5040061;28;20037;-67
2023/04/23 08:40:55;;;;;;;0.95;0.75;;;23.60;47.50;;;;;;5036599;28;20021;-69
2023/04/23 08:43:30;;;;;;;0.70;0.70;;;23.60;47.50;;;;;;5039491;28;20034;-69
2023/04/23 08:45:57;;;;;;;1.25;0.90;;;23.50;48.00;;;;;;5036330;28;20116;-69
2023/04/23 08:48:23;;;;;;;1.40;0.90;;;23.60;47.60;;;;;;5033381;28;20017;-68
2023/04/23 08:50:49;;;;;;;1.20;0.73;;;23.50;47.50;;;;;;5037490;28;20032;-67
2023/04/23 08:53:18;;;;;;;0.90;0.80;;;23.50;47.50;;;;;;5039070;28;20026;-68
2023/04/23 08:55:44;;;;;;;1.25;0.80;;;23.50;47.50;;;;;;5039612;28;20033;-68
2023/04/23 08:58:10;;;;;;;0.80;0.75;;;23.60;47.60;;;;;;5039963;28;20489;-68
2023/04/23 09:00:37;;;;;;;1.10;0.65;;;23.50;47.60;;;;;;5036133;28;20393;-69
2023/04/23 09:03:03;;;;;;;1.15;0.82;;;23.50;47.60;;;;;;5036136;28;20423;-68
2023/04/23 09:05:29;;;;;;;1.17;0.80;;;23.50;47.60;;;;;;5037700;28;20033;-68
2023/04/23 09:07:57;;;;;;;0.93;0.80;;;23.50;47.60;;;;;;5038688;28;20425;-68
2023/04/23 09:10:22;;;;;;;0.90;0.73;;;23.50;47.60;;;;;;5037727;28;20419;-67
2023/04/23 09:12:48;;;;;;;1.05;0.80;;;23.50;47.60;;;;;;5033953;28;20031;-69
2023/04/23 09:15:13;;;;;;;1.27;0.70;;;23.50;47.60;;;;;;5037789;28;20097;-68
2023/04/23 09:17:41;;;;;;;0.95;0.80;;;23.50;47.60;;;;;;5040586;28;20441;-68
2023/04/23 09:20:08;;;;;;;0.88;0.80;;;23.50;47.60;;;;;;5039850;28;20029;-68
2023/04/23 09:22:43;;;;;;;1.30;0.80;;;23.50;47.60;;;;;;5039161;28;20048;-68
2023/04/23 09:25:11;;;;;;;1.23;0.90;;;23.50;47.60;;;;;;5040173;28;20622;-69
2023/04/23 09:27:37;;;;;;;1.40;0.90;;;23.50;47.60;;;;;;5041058;28;20518;-70
2023/04/23 09:30:06;;;;;;;0.88;0.70;;;23.50;47.70;;;;;;5053618;28;20083;-71
2023/04/23 09:32:33;;;;;;;1.30;0.80;;;23.50;47.70;;;;;;5040130;28;20517;-71
2023/04/23 09:35:02;;;;;;;0.90;0.80;;;23.50;47.70;;;;;;5039307;28;20080;-71
2023/04/23 09:37:28;;;;;;;1.15;0.80;;;23.50;47.70;;;;;;5040642;28;20392;-70
2023/04/23 09:39:57;;;;;;;0.90;0.73;;;23.50;47.80;;;;;;5040459;28;20029;-70
2023/04/23 09:42:23;;;;;;;1.25;0.80;;;23.50;47.80;;;;;;5072801;28;20033;-71
2023/04/23 09:44:56;;;;;;;1.17;0.90;;;23.50;47.70;;;;;;5041099;28;20037;-70
2023/04/23 09:47:22;;;;;;;1.40;0.93;;;23.50;47.70;;;;;;5040327;28;20039;-70
2023/04/23 09:49:48;;;;;;;1.10;0.90;;;23.50;47.80;;;;;;5039743;28;20041;-70
2023/04/23 09:52:15;;;;;;;0.95;0.80;;;23.50;47.80;;;;;;5040544;28;20504;-71
2023/04/23 09:54:41;;;;;;;1.20;0.80;;;23.40;47.70;;;;;;5039649;28;20043;-70
2023/04/23 09:57:07;;;;;;;1.10;0.90;;;23.40;47.70;;;;;;5040753;28;20098;-70
2023/04/23 09:59:37;;;;;;;0.82;0.80;;;23.40;47.70;;;;;;5040243;28;20029;-70
2023/04/23 10:02:06;;;;;;;1.20;0.80;;;23.40;47.70;;;;;;5040329;28;20115;-70
2023/04/23 10:04:32;;;;;;;1.03;0.80;;;23.40;47.80;;;;;;5071872;28;20422;-71
2023/04/23 10:07:00;;;;;;;0.85;0.80;;;23.50;47.80;;;;;;5071207;28;20652;-71
2023/04/23 10:09:28;;;;;;;0.95;0.70;;;23.40;47.80;;;;;;5038746;28;20034;-71
2023/04/23 10:11:58;;;;;;;0.80;0.70;;;23.40;47.70;;;;;;5040808;28;20036;-70
2023/04/23 10:14:25;;;;;;;1.50;0.90;;;23.40;47.70;;;;;;5038599;28;20519;-70
2023/04/23 10:16:56;;;;;;;1.67;0.98;;;23.40;47.70;;;;;;5042116;28;20025;-70
2023/04/23 10:19:23;;;;;;;0.90;0.80;;;23.40;47.70;;;;;;5039914;28;20372;-70
2023/04/23 10:22:04;;;;;;;0.88;0.70;;;23.40;47.50;;;;;;5039154;28;20025;-70
2023/04/23 10:24:33;;;;;;;0.98;0.77;;;23.40;47.50;;;;;;5038554;28;20029;-70
2023/04/23 10:27:01;;;;;;;0.80;0.80;;;23.40;47.50;;;;;;5038969;28;20946;-71
2023/04/23 10:29:31;;;;;;;1.20;0.80;;;23.40;47.50;;;;;;5039082;28;20112;-70
2023/04/23 10:32:05;;;;;;;1.02;0.80;;;23.40;47.40;;;;;;5036910;28;20032;-70
2023/04/23 10:34:32;;;;;;;0.77;0.70;;;23.40;47.40;;;;;;5038021;28;20048;-71
2023/04/23 10:36:59;;;;;;;0.90;0.80;;;23.40;48.00;;;;;;5042386;28;20025;-71
2023/04/23 10:39:33;;;;;;;1.45;0.90;;;23.40;47.50;;;;;;5043024;28;20034;-71
2023/04/23 10:42:00;;;;;;;0.98;0.70;;;23.40;47.60;;;;;;5039356;28;20433;-70
2023/04/23 10:44:36;;;;;;;1.40;0.90;;;23.40;47.50;;;;;;5039754;28;20021;-72
2023/04/23 10:47:03;;;;;;;0.70;0.70;;;23.40;47.50;;;;;;5040627;28;20029;-70
2023/04/23 10:49:31;;;;;;;1.00;0.82;;;23.40;47.50;;;;;;5040759;28;20025;-71
2023/04/23 10:52:08;;;;;;;1.10;0.70;;;23.40;47.50;;;;;;5040761;28;20552;-71
2023/04/23 10:54:35;;;;;;;0.95;0.80;;;23.40;47.40;;;;;;5037855;28;20026;-71
2023/04/23 10:57:05;;;;;;;0.68;0.63;;;23.40;47.20;;;;;;5038731;28;20045;-71
2023/04/23 10:59:38;;;;;;;0.80;0.75;;;23.40;47.10;;;;;;5040544;28;20022;-71
2023/04/23 11:02:07;;;;;;;0.88;0.80;;;23.40;47.00;;;;;;5038512;28;20094;-69
2023/04/23 11:04:34;;;;;;;;;;;23.40;47.00;;;;;;5037238;28;20017;-69
2023/04/23 11:07:10;;;;;;;2.22;0.60;;;23.40;47.10;;;;;;5039082;28;19915;-68
2023/04/23 11:09:45;;;;;;;1.88;0.90;;;23.40;47.10;;;;;;5037201;28;20061;-69
2023/04/23 11:12:13;;;;;;;0.70;0.65;;;23.40;47.20;;;;;;5041960;28;20028;-69
2023/04/23 11:14:46;;;;;;;0.65;0.60;;;23.40;47.20;;;;;;5038716;28;20029;-69
2023/04/23 11:17:13;;;;;;;1.35;0.75;;;23.40;47.20;;;;;;5037525;28;20066;-69
2023/04/23 11:19:40;;;;;;;1.02;0.70;;;23.40;47.30;;;;;;5037697;28;20029;-69
2023/04/23 11:22:13;;;;;;;1.00;0.70;;;23.40;47.30;;;;;;5039256;28;20100;-69
2023/04/23 11:24:41;;;;;;;1.10;0.70;;;23.40;47.40;;;;;;5046084;28;20029;-70
2023/04/23 11:27:17;;;;;;;1.88;0.80;;;23.40;47.40;;;;;;5040940;28;20034;-69
2023/04/23 11:29:45;;;;;;;1.10;0.70;;;23.40;47.40;;;;;;5039566;28;20079;-69
2023/04/23 11:32:12;;;;;;;1.77;0.90;;;23.40;47.40;;;;;;5038003;28;20415;-69
2023/04/23 11:34:42;;;;;;;0.80;0.60;;;23.40;47.40;;;;;;5034680;28;20048;-69
2023/04/23 11:37:12;;;;;;;0.82;0.68;;;23.40;47.40;;;;;;5034769;28;20025;-69
2023/04/23 11:39:42;;;;;;;0.70;0.70;;;23.40;47.40;;;;;;5039517;28;20065;-69
2023/04/23 11:42:13;;;;;;;1.15;0.80;;;23.40;47.40;;;;;;5037016;28;20037;-69
2023/04/23 11:44:42;;;;;;;0.95;0.65;;;23.40;47.50;;;;;;5040216;28;20041;-70
2023/04/23 11:47:10;;;;;;;0.88;0.68;;;23.40;47.50;;;;;;5037253;28;20127;-69
2023/04/23 11:49:39;;;;;;;0.93;0.70;;;23.40;47.50;;;;;;5036384;28;20025;-70
2023/04/23 11:52:05;;;;;;;0.82;0.68;;;23.40;47.50;;;;;;5040024;28;20021;-68
2023/04/23 11:54:33;;;;;;;0.60;0.60;;;23.40;47.50;;;;;;5037878;28;20083;-69
2023/04/23 11:56:59;;;;;;;1.05;0.70;;;23.40;47.50;;;;;;5037009;28;20060;-70
2023/04/23 11:59:25;;;;;;;1.08;0.75;;;23.40;47.50;;;;;;5040921;28;20029;-70
2023/04/23 12:01:55;;;;;;;1.20;0.70;;;23.40;47.50;;;;;;5038338;28;20035;-69
2023/04/23 12:04:26;;;;;;;0.90;0.70;;;23.40;47.50;;;;;;5037326;28;20064;-69
2023/04/23 12:06:54;;;;;;;0.75;0.70;;;23.40;47.50;;;;;;5040299;28;20025;-70
2023/04/23 12:09:23;;;;;;;0.77;0.70;;;23.40;47.50;;;;;;5034714;28;20029;-69
2023/04/23 12:11:50;;;;;;;0.80;0.80;;;23.40;47.50;;;;;;5036235;28;20366;-67
2023/04/23 12:14:17;;;;;;;0.90;0.70;;;23.40;47.50;;;;;;5035907;28;20119;-68
2023/04/23 12:16:50;;;;;;;0.82;0.68;;;23.40;47.60;;;;;;5043746;28;20385;-68
2023/04/23 12:19:20;;;;;;;1.63;0.80;;;23.40;47.60;;;;;;5033507;28;20080;-68
2023/04/23 12:21:48;;;;;;;0.80;0.70;;;23.40;47.60;;;;;;5035754;28;20029;-67
2023/04/23 12:24:14;;;;;;;0.70;0.65;;;23.40;47.60;;;;;;5037953;28;20049;-67
2023/04/23 12:26:42;;;;;;;0.95;0.65;;;23.40;47.50;;;;;;5038140;28;20072;-67
2023/04/23 12:29:07;;;;;;;1.02;0.70;;;23.40;47.60;;;;;;5035855;28;20101;-66
2023/04/23 12:31:36;;;;;;;0.90;0.70;;;23.40;47.60;;;;;;5039308;28;20088;-67
2023/04/23 12:34:03;;;;;;;1.55;0.68;;;23.40;47.60;;;;;;5038379;28;20161;-67
2023/04/23 12:36:30;;;;;;;1.48;0.75;;;23.40;47.60;;;;;;5033585;28;20029;-67
2023/04/23 12:39:31;;;;;;;0.82;0.63;;;23.40;47.60;;;;;;5036108;28;20116;-68
2023/04/23 12:42:05;;;;;;;2.20;0.70;;;23.40;47.60;;;;;;5037036;28;20389;-67
2023/04/23 12:44:35;;;;;;;0.68;0.68;;;23.40;47.60;;;;;;5034895;28;20456;-67
2023/04/23 12:47:10;;;;;;;0.95;0.80;;;23.50;47.60;;;;;;5038714;28;20366;-67